createdAt,value
2023-03-12T00:00:00.923Z,-1.1
2023-03-12T00:01:00.516Z,-1.1
2023-03-12T00:02:00.661Z,-1.1
2023-03-12T00:03:00.682Z,-1.1
2023-03-12T00:04:01.233Z,-1.1
2023-03-12T00:05:00.593Z,-1.1
2023-03-12T00:06:10.290Z,-1.1
2023-03-12T00:07:01.227Z,-1.1
2023-03-12T00:08:00.513Z,-1.1
2023-03-12T00:09:00.520Z,-1.1
2023-03-12T00:10:00.603Z,-1.2
2023-03-12T00:11:06.863Z,-1.1
2023-03-12T00:12:00.551Z,-1.1
2023-03-12T00:13:00.752Z,-1.2
2023-03-12T00:14:00.606Z,-1.2
2023-03-12T00:15:00.588Z,-1.3
2023-03-12T00:16:03.628Z,-1.3
2023-03-12T00:17:00.581Z,-1.3
2023-03-12T00:18:00.530Z,-1.3
2023-03-12T00:19:00.555Z,-1.4
2023-03-12T00:20:01.006Z,-1.4
2023-03-12T00:21:00.584Z,-1.4
2023-03-12T00:22:00.537Z,-1.4
2023-03-12T00:23:00.617Z,-1.4
2023-03-12T00:24:00.542Z,-1.4
2023-03-12T00:25:01.211Z,-1.4
2023-03-12T00:26:02.008Z,-1.4
2023-03-12T00:27:00.651Z,-1.4
2023-03-12T00:28:00.529Z,-1.4
2023-03-12T00:29:00.658Z,-1.3
2023-03-12T00:30:00.617Z,-1.3
2023-03-12T00:31:01.431Z,-1.3
2023-03-12T00:32:00.583Z,-1.4
2023-03-12T00:33:00.554Z,-1.4
2023-03-12T00:34:01.565Z,-1.4
2023-03-12T00:35:01.804Z,-1.4
2023-03-12T00:36:00.626Z,-1.4
2023-03-12T00:37:00.546Z,-1.4
2023-03-12T00:38:00.548Z,-1.4
2023-03-12T00:39:00.837Z,-1.3
2023-03-12T00:40:01.193Z,-1.3
2023-03-12T00:41:00.605Z,-1.3
2023-03-12T00:42:00.652Z,-1.4
2023-03-12T00:43:00.604Z,-1.4
2023-03-12T00:44:00.888Z,-1.4
2023-03-12T00:45:00.555Z,-1.4
2023-03-12T00:46:00.584Z,-1.3
2023-03-12T00:47:00.622Z,-1.3
2023-03-12T00:48:00.533Z,-1.3
2023-03-12T00:49:00.577Z,-1.3
2023-03-12T00:50:00.557Z,-1.2
2023-03-12T00:51:00.723Z,-1.3
2023-03-12T00:52:00.589Z,-1.3
2023-03-12T00:53:00.699Z,-1.3
2023-03-12T00:54:00.546Z,-1.3
2023-03-12T00:55:00.518Z,-1.3
2023-03-12T00:56:01.222Z,-1.4
2023-03-12T00:57:00.550Z,-1.4
2023-03-12T00:58:00.558Z,-1.3
2023-03-12T00:59:00.695Z,-1.3
2023-03-12T01:00:00.575Z,-1.4
2023-03-12T01:01:00.666Z,-1.4
2023-03-12T01:02:00.559Z,-1.4
2023-03-12T01:03:00.675Z,-1.4
2023-03-12T01:04:00.592Z,-1.5
2023-03-12T01:05:00.738Z,-1.5
2023-03-12T01:06:00.543Z,-1.5
2023-03-12T01:07:00.545Z,-1.5
2023-03-12T01:08:00.560Z,-1.5
2023-03-12T01:09:01.153Z,-1.5
2023-03-12T01:10:00.644Z,-1.5
2023-03-12T01:11:00.562Z,-1.5
2023-03-12T01:12:00.634Z,-1.5
2023-03-12T01:13:00.600Z,-1.5
2023-03-12T01:14:01.708Z,-1.5
2023-03-12T01:15:00.889Z,-1.5
2023-03-12T01:16:00.588Z,-1.5
2023-03-12T01:17:00.592Z,-1.5
2023-03-12T01:18:00.546Z,-1.5
2023-03-12T01:19:02.481Z,-1.5
2023-03-12T01:20:00.614Z,-1.6
2023-03-12T01:21:00.906Z,-1.6
2023-03-12T01:22:00.575Z,-1.6
2023-03-12T01:23:00.624Z,-1.6
2023-03-12T01:24:00.649Z,-1.6
2023-03-12T01:25:00.776Z,-1.6
2023-03-12T01:26:00.533Z,-1.5
2023-03-12T01:27:00.562Z,-1.5
2023-03-12T01:28:00.568Z,-1.5
2023-03-12T01:29:00.562Z,-1.5
2023-03-12T01:30:00.728Z,-1.6
2023-03-12T01:31:05.611Z,-1.6
2023-03-12T01:32:00.547Z,-1.6
2023-03-12T01:33:00.611Z,-1.6
2023-03-12T01:34:00.533Z,-1.6
2023-03-12T01:35:00.615Z,-1.6
2023-03-12T01:36:00.889Z,-1.6
2023-03-12T01:37:00.790Z,-1.6
2023-03-12T01:38:00.525Z,-1.6
2023-03-12T01:39:00.670Z,-1.6
2023-03-12T01:40:00.885Z,-1.6
2023-03-12T01:41:00.529Z,-1.4
2023-03-12T01:42:00.587Z,-1.4
2023-03-12T01:43:20.464Z,-1.5
2023-03-12T01:44:02.190Z,-1.5
2023-03-12T01:45:04.194Z,-1.5
2023-03-12T01:46:14.185Z,-1.5
2023-03-12T01:47:00.539Z,-1.5
2023-03-12T01:48:00.506Z,-1.5
2023-03-12T01:49:11.747Z,-1.5
2023-03-12T01:50:01.106Z,-1.4
2023-03-12T01:51:01.613Z,-1.4
2023-03-12T01:52:06.020Z,-1.4
2023-03-12T01:53:00.666Z,-1.4
2023-03-12T01:54:05.345Z,-1.4
2023-03-12T01:55:07.789Z,-1.5
2023-03-12T01:56:02.232Z,-1.4
2023-03-12T01:57:04.077Z,-1.3
2023-03-12T01:58:01.032Z,-1.3
2023-03-12T01:59:08.583Z,-1.3
2023-03-12T02:00:07.525Z,-1.3
2023-03-12T02:01:00.818Z,-1.3
2023-03-12T02:02:01.812Z,-1.2
2023-03-12T02:03:05.363Z,-1.2
2023-03-12T02:04:01.115Z,-1.2
2023-03-12T02:05:06.763Z,-1.3
2023-03-12T02:06:06.830Z,-1.3
2023-03-12T02:07:06.102Z,-1.3
2023-03-12T02:08:00.564Z,-1.4
2023-03-12T02:09:03.650Z,-1.4
2023-03-12T02:10:01.131Z,-1.3
2023-03-12T02:11:00.588Z,-1.3
2023-03-12T02:12:00.939Z,-1.2
2023-03-12T02:13:00.643Z,-1.3
2023-03-12T02:14:01.114Z,-1.3
2023-03-12T02:15:00.837Z,-1.3
2023-03-12T02:16:01.064Z,-1.2
2023-03-12T02:17:00.558Z,-1.3
2023-03-12T02:18:06.133Z,-1.2
2023-03-12T02:19:03.658Z,-1.2
2023-03-12T02:20:20.437Z,-1.2
2023-03-12T02:21:16.876Z,-1.2
2023-03-12T02:22:01.072Z,-1.2
2023-03-12T02:23:07.640Z,-1.1
2023-03-12T02:24:01.520Z,-1.1
2023-03-12T02:25:15.349Z,-1.1
2023-03-12T02:26:03.117Z,-1.1
2023-03-12T02:27:01.349Z,-1.1
2023-03-12T02:28:03.973Z,-1.1
2023-03-12T02:29:00.716Z,-1.2
2023-03-12T02:30:02.602Z,-1.2
2023-03-12T02:31:02.690Z,-1.2
2023-03-12T02:32:02.692Z,-1.2
2023-03-12T02:33:05.084Z,-1.2
2023-03-12T02:34:02.100Z,-1.2
2023-03-12T02:35:00.925Z,-1.2
2023-03-12T02:36:00.616Z,-1.2
2023-03-12T02:37:01.109Z,-1.2
2023-03-12T02:38:01.306Z,-1.3
2023-03-12T02:39:00.549Z,-1.3
2023-03-12T02:40:14.329Z,-1.2
2023-03-12T02:41:09.619Z,-1.2
2023-03-12T02:42:00.549Z,-1.1
2023-03-12T02:43:04.809Z,-1.2
2023-03-12T02:44:06.305Z,-1.1
2023-03-12T02:45:01.952Z,-1.1
2023-03-12T02:46:00.659Z,-1.1
2023-03-12T02:47:00.846Z,-1.1
2023-03-12T02:48:01.555Z,-1.1
2023-03-12T02:49:01.498Z,-1.0
2023-03-12T02:50:00.554Z,-1.0
2023-03-12T02:51:00.579Z,-1.1
2023-03-12T02:52:01.294Z,-1.1
2023-03-12T02:53:00.656Z,-1.1
2023-03-12T02:54:00.519Z,-1.2
2023-03-12T02:55:01.295Z,-1.2
2023-03-12T02:56:01.272Z,-1.2
2023-03-12T02:57:00.589Z,-1.1
2023-03-12T02:58:00.558Z,-1.1
2023-03-12T02:59:03.296Z,-1.2
2023-03-12T03:00:00.574Z,-1.2
2023-03-12T03:01:00.659Z,-1.2
2023-03-12T03:02:00.837Z,-1.2
2023-03-12T03:03:00.747Z,-1.2
2023-03-12T03:04:02.423Z,-1.2
2023-03-12T03:05:00.549Z,-1.2
2023-03-12T03:06:00.549Z,-1.2
2023-03-12T03:07:00.598Z,-1.2
2023-03-12T03:08:00.566Z,-1.2
2023-03-12T03:09:01.367Z,-1.2
2023-03-12T03:10:00.604Z,-1.2
2023-03-12T03:11:00.605Z,-1.2
2023-03-12T03:12:00.575Z,-1.2
2023-03-12T03:13:00.649Z,-1.1
2023-03-12T03:14:00.629Z,-1.1
2023-03-12T03:15:01.451Z,-1.1
2023-03-12T03:16:00.848Z,-1.1
2023-03-12T03:17:00.626Z,-1.2
2023-03-12T03:18:00.552Z,-1.2
2023-03-12T03:19:00.805Z,-1.2
2023-03-12T03:20:00.683Z,-1.2
2023-03-12T03:21:04.759Z,-1.2
2023-03-12T03:22:00.721Z,-1.2
2023-03-12T03:23:00.581Z,-1.2
2023-03-12T03:24:00.557Z,-1.2
2023-03-12T03:25:00.782Z,-1.2
2023-03-12T03:26:00.595Z,-1.2
2023-03-12T03:27:00.590Z,-1.2
2023-03-12T03:28:00.605Z,-1.2
2023-03-12T03:29:00.810Z,-1.3
2023-03-12T03:30:00.736Z,-1.3
2023-03-12T03:31:00.837Z,-1.3
2023-03-12T03:32:00.586Z,-1.2
2023-03-12T03:33:00.582Z,-1.2
2023-03-12T03:34:00.594Z,-1.1
2023-03-12T03:35:00.635Z,-1.2
2023-03-12T03:36:00.916Z,-1.2
2023-03-12T03:37:00.546Z,-1.2
2023-03-12T03:38:00.751Z,-1.2
2023-03-12T03:39:00.542Z,-1.2
2023-03-12T03:40:00.783Z,-1.2
2023-03-12T03:41:01.466Z,-1.3
2023-03-12T03:42:00.862Z,-1.3
2023-03-12T03:43:00.631Z,-1.3
2023-03-12T03:44:00.569Z,-1.3
2023-03-12T03:45:00.538Z,-1.3
2023-03-12T03:46:03.855Z,-1.3
2023-03-12T03:47:00.583Z,-1.3
2023-03-12T03:48:00.531Z,-1.4
2023-03-12T03:49:01.304Z,-1.3
2023-03-12T03:50:00.606Z,-1.3
2023-03-12T03:51:01.963Z,-1.2
2023-03-12T03:52:00.526Z,-1.2
2023-03-12T03:53:00.570Z,-1.2
2023-03-12T03:54:00.631Z,-1.1
2023-03-12T03:55:00.553Z,-1.1
2023-03-12T03:56:11.319Z,-1.1
2023-03-12T03:57:00.551Z,-1.2
2023-03-12T03:58:00.529Z,-1.1
2023-03-12T03:59:01.042Z,-1.0
2023-03-12T04:00:03.482Z,-1.1
2023-03-12T04:01:00.559Z,-1.0
2023-03-12T04:02:00.563Z,-1.0
2023-03-12T04:03:00.768Z,-1.1
2023-03-12T04:04:00.580Z,-1.1
2023-03-12T04:05:00.947Z,-1.1
2023-03-12T04:06:03.884Z,-1.2
2023-03-12T04:07:00.531Z,-1.2
2023-03-12T04:08:00.553Z,-1.2
2023-03-12T04:09:00.615Z,-1.2
2023-03-12T04:10:00.754Z,-1.1
2023-03-12T04:11:10.286Z,-1.1
2023-03-12T04:12:00.597Z,-1.1
2023-03-12T04:13:00.549Z,-1.1
2023-03-12T04:14:00.554Z,-1.0
2023-03-12T04:15:00.713Z,-1.0
2023-03-12T04:16:00.582Z,-1.1
2023-03-12T04:17:00.588Z,-1.0
2023-03-12T04:18:00.588Z,-1.0
2023-03-12T04:19:00.544Z,-0.9
2023-03-12T04:20:00.556Z,-0.9
2023-03-12T04:21:01.330Z,-0.9
2023-03-12T04:22:01.075Z,-0.9
2023-03-12T04:23:00.549Z,-0.8
2023-03-12T04:24:00.600Z,-0.9
2023-03-12T04:25:00.553Z,-0.8
2023-03-12T04:26:00.545Z,-0.8
2023-03-12T04:27:00.784Z,-0.8
2023-03-12T04:28:00.657Z,-0.8
2023-03-12T04:29:00.522Z,-0.8
2023-03-12T04:30:00.575Z,-0.9
2023-03-12T04:31:03.718Z,-0.8
2023-03-12T04:32:00.649Z,-0.7
2023-03-12T04:33:00.552Z,-0.8
2023-03-12T04:34:00.561Z,-0.8
2023-03-12T04:35:00.520Z,-0.8
2023-03-12T04:36:00.828Z,-0.8
2023-03-12T04:37:01.059Z,-0.8
2023-03-12T04:38:00.951Z,-0.7
2023-03-12T04:39:00.882Z,-0.8
2023-03-12T04:40:01.418Z,-0.8
2023-03-12T04:41:06.644Z,-0.8
2023-03-12T04:42:00.562Z,-0.8
2023-03-12T04:43:00.566Z,-0.8
2023-03-12T04:44:01.801Z,-0.8
2023-03-12T04:45:01.323Z,-0.7
2023-03-12T04:46:00.850Z,-0.6
2023-03-12T04:47:01.125Z,-0.6
2023-03-12T04:48:00.543Z,-0.7
2023-03-12T04:49:00.737Z,-0.6
2023-03-12T04:50:00.566Z,-0.6
2023-03-12T04:51:00.935Z,-0.6
2023-03-12T04:52:00.560Z,-0.6
2023-03-12T04:53:00.768Z,-0.7
2023-03-12T04:54:00.550Z,-0.8
2023-03-12T04:55:00.969Z,-0.8
2023-03-12T04:56:00.778Z,-0.8
2023-03-12T04:57:00.548Z,-0.8
2023-03-12T04:58:00.828Z,-0.7
2023-03-12T04:59:00.615Z,-0.7
2023-03-12T05:00:00.638Z,-0.8
2023-03-12T05:01:00.597Z,-0.8
2023-03-12T05:02:00.659Z,-0.9
2023-03-12T05:03:00.668Z,-0.9
2023-03-12T05:04:01.318Z,-0.9
2023-03-12T05:05:00.531Z,-0.8
2023-03-12T05:06:00.531Z,-0.8
2023-03-12T05:07:00.920Z,-0.8
2023-03-12T05:08:01.671Z,-0.7
2023-03-12T05:09:00.733Z,-0.7
2023-03-12T05:10:00.603Z,-0.7
2023-03-12T05:11:00.545Z,-0.8
2023-03-12T05:12:00.554Z,-0.8
2023-03-12T05:13:00.607Z,-0.8
2023-03-12T05:14:00.547Z,-0.7
2023-03-12T05:15:00.554Z,-0.7
2023-03-12T05:16:00.656Z,-0.7
2023-03-12T05:17:00.546Z,-0.7
2023-03-12T05:18:00.542Z,-0.6
2023-03-12T05:19:00.592Z,-0.7
2023-03-12T05:20:00.614Z,-0.8
2023-03-12T05:21:07.878Z,-0.7
2023-03-12T05:22:00.551Z,-0.7
2023-03-12T05:23:00.593Z,-0.7
2023-03-12T05:24:00.695Z,-0.7
2023-03-12T05:25:00.992Z,-0.7
2023-03-12T05:26:01.193Z,-0.8
2023-03-12T05:27:00.935Z,-0.8
2023-03-12T05:28:00.534Z,-0.8
2023-03-12T05:29:01.181Z,-0.8
2023-03-12T05:30:00.679Z,-0.8
2023-03-12T05:31:00.541Z,-0.8
2023-03-12T05:32:01.201Z,-0.8
2023-03-12T05:33:00.546Z,-0.8
2023-03-12T05:34:02.796Z,-0.8
2023-03-12T05:35:00.568Z,-0.8
2023-03-12T05:36:00.550Z,-0.9
2023-03-12T05:37:00.642Z,-0.8
2023-03-12T05:38:00.616Z,-0.8
2023-03-12T05:39:00.597Z,-0.7
2023-03-12T05:40:00.635Z,-0.6
2023-03-12T05:41:00.999Z,-0.5
2023-03-12T05:42:00.532Z,-0.3
2023-03-12T05:43:00.543Z,-0.1
2023-03-12T05:44:00.653Z,-0.0
2023-03-12T05:45:00.718Z,0.1
2023-03-12T05:46:02.472Z,0.3
2023-03-12T05:47:00.544Z,0.4
2023-03-12T05:48:00.609Z,0.5
2023-03-12T05:49:00.535Z,0.6
2023-03-12T05:50:00.554Z,0.7
2023-03-12T05:51:00.584Z,0.7
2023-03-12T05:52:00.556Z,0.7
2023-03-12T05:53:00.591Z,0.8
2023-03-12T05:54:00.863Z,0.9
2023-03-12T05:55:00.547Z,0.9
2023-03-12T05:56:05.051Z,0.8
2023-03-12T05:57:00.541Z,0.8
2023-03-12T05:58:00.551Z,0.7
2023-03-12T05:59:00.519Z,0.6
2023-03-12T06:00:00.734Z,0.6
2023-03-12T06:01:01.167Z,0.6
2023-03-12T06:02:01.123Z,0.7
2023-03-12T06:03:00.605Z,1.0
2023-03-12T06:04:00.998Z,1.3
2023-03-12T06:05:00.533Z,1.4
2023-03-12T06:06:00.550Z,1.6
2023-03-12T06:07:00.525Z,1.6
2023-03-12T06:08:02.859Z,1.6
2023-03-12T06:09:01.699Z,1.5
2023-03-12T06:10:00.543Z,1.4
2023-03-12T06:11:00.556Z,1.4
2023-03-12T06:12:00.529Z,1.3
2023-03-12T06:13:00.555Z,1.3
2023-03-12T06:14:00.623Z,1.2
2023-03-12T06:15:00.544Z,1.1
2023-03-12T06:16:05.298Z,1.1
2023-03-12T06:17:01.375Z,1.4
2023-03-12T06:18:00.551Z,1.6
2023-03-12T06:19:01.883Z,1.9
2023-03-12T06:20:00.671Z,2.2
2023-03-12T06:21:11.561Z,2.5
2023-03-12T06:22:00.512Z,2.6
2023-03-12T06:23:00.546Z,2.8
2023-03-12T06:24:01.552Z,3.1
2023-03-12T06:25:00.731Z,3.1
2023-03-12T06:26:00.509Z,3.0
2023-03-12T06:27:00.521Z,2.8
2023-03-12T06:28:00.537Z,2.7
2023-03-12T06:29:00.652Z,2.7
2023-03-12T06:30:00.559Z,2.9
2023-03-12T06:31:00.905Z,3.2
2023-03-12T06:32:00.612Z,3.4
2023-03-12T06:33:00.559Z,3.7
2023-03-12T06:34:00.536Z,4.0
2023-03-12T06:35:00.860Z,4.1
2023-03-12T06:36:02.681Z,4.2
2023-03-12T06:37:00.591Z,4.4
2023-03-12T06:38:00.517Z,4.5
2023-03-12T06:39:00.659Z,4.7
2023-03-12T06:40:00.692Z,4.9
2023-03-12T06:41:04.236Z,5.0
2023-03-12T06:42:00.619Z,5.2
2023-03-12T06:43:00.584Z,5.3
2023-03-12T06:44:01.033Z,5.5
2023-03-12T06:45:00.740Z,5.7
2023-03-12T06:46:01.833Z,5.9
2023-03-12T06:47:00.578Z,5.9
2023-03-12T06:48:00.548Z,6.0
2023-03-12T06:49:00.982Z,5.9
2023-03-12T06:50:00.524Z,6.1
2023-03-12T06:51:00.520Z,6.3
2023-03-12T06:52:00.597Z,6.4
2023-03-12T06:53:00.569Z,6.6
2023-03-12T06:54:00.584Z,6.6
2023-03-12T06:55:00.525Z,6.6
2023-03-12T06:56:00.981Z,6.4
2023-03-12T06:57:00.648Z,6.3
2023-03-12T06:58:00.510Z,6.1
2023-03-12T06:59:00.561Z,6.0
2023-03-12T07:00:00.636Z,5.7
2023-03-12T07:01:00.561Z,5.4
2023-03-12T07:02:00.571Z,5.3
2023-03-12T07:03:00.748Z,5.2
2023-03-12T07:04:00.511Z,4.9
2023-03-12T07:05:00.545Z,4.9
2023-03-12T07:06:00.558Z,4.8
2023-03-12T07:07:00.528Z,4.8
2023-03-12T07:08:00.620Z,4.8
2023-03-12T07:09:00.571Z,4.8
2023-03-12T07:10:00.533Z,4.7
2023-03-12T07:11:01.774Z,4.7
2023-03-12T07:12:00.518Z,4.7
2023-03-12T07:13:00.583Z,4.8
2023-03-12T07:14:00.625Z,4.9
2023-03-12T07:15:00.538Z,4.9
2023-03-12T07:16:01.204Z,5.2
2023-03-12T07:17:00.540Z,5.2
2023-03-12T07:18:04.711Z,5.5
2023-03-12T07:19:00.547Z,5.7
2023-03-12T07:20:01.081Z,5.9
2023-03-12T07:21:00.528Z,6.1
2023-03-12T07:22:00.762Z,6.2
2023-03-12T07:23:00.568Z,6.4
2023-03-12T07:24:00.610Z,6.5
2023-03-12T07:25:00.531Z,6.5
2023-03-12T07:26:03.942Z,6.3
2023-03-12T07:27:00.524Z,6.2
2023-03-12T07:28:00.558Z,6.2
2023-03-12T07:29:01.752Z,6.2
2023-03-12T07:30:00.577Z,6.1
2023-03-12T07:31:02.570Z,6.0
2023-03-12T07:32:00.580Z,5.8
2023-03-12T07:33:02.295Z,5.5
2023-03-12T07:34:00.698Z,5.3
2023-03-12T07:35:00.534Z,5.0
2023-03-12T07:36:00.981Z,4.8
2023-03-12T07:37:00.533Z,4.6
2023-03-12T07:38:01.338Z,4.5
2023-03-12T07:39:00.541Z,4.2
2023-03-12T07:40:00.655Z,4.1
2023-03-12T07:41:00.638Z,4.0
2023-03-12T07:42:00.593Z,4.0
2023-03-12T07:43:00.697Z,4.0
2023-03-12T07:44:00.709Z,4.0
2023-03-12T07:45:00.569Z,4.0
2023-03-12T07:46:00.541Z,4.0
2023-03-12T07:47:12.821Z,4.0
2023-03-12T07:48:00.576Z,3.9
2023-03-12T07:49:00.566Z,3.9
2023-03-12T07:50:00.799Z,3.8
2023-03-12T07:51:00.710Z,3.8
2023-03-12T07:52:00.639Z,3.6
2023-03-12T07:53:00.709Z,3.6
2023-03-12T07:54:00.668Z,3.6
2023-03-12T07:55:00.591Z,3.6
2023-03-12T07:56:00.672Z,3.6
2023-03-12T07:57:00.917Z,3.6
2023-03-12T07:58:00.692Z,3.4
2023-03-12T07:59:00.839Z,3.4
2023-03-12T08:00:00.759Z,3.3
2023-03-12T08:01:01.577Z,3.2
2023-03-12T08:02:00.699Z,3.2
2023-03-12T08:03:00.738Z,3.2
2023-03-12T08:04:01.687Z,3.1
2023-03-12T08:05:00.580Z,2.9
2023-03-12T08:06:03.176Z,2.8
2023-03-12T08:07:01.420Z,2.8
2023-03-12T08:08:00.592Z,2.8
2023-03-12T08:09:00.520Z,2.7
2023-03-12T08:10:02.507Z,2.5
2023-03-12T08:11:02.776Z,2.5
2023-03-12T08:12:00.675Z,2.5
2023-03-12T08:13:00.581Z,2.4
2023-03-12T08:14:00.581Z,2.4
2023-03-12T08:15:00.506Z,2.4
2023-03-12T08:16:00.565Z,2.5
2023-03-12T08:17:01.515Z,2.5
2023-03-12T08:18:00.511Z,2.5
2023-03-12T08:19:00.552Z,2.6
2023-03-12T08:20:00.584Z,2.7
2023-03-12T08:21:00.568Z,2.7
2023-03-12T08:22:00.571Z,2.8
2023-03-12T08:23:00.645Z,2.9
2023-03-12T08:24:00.556Z,3.0
2023-03-12T08:25:00.539Z,3.1
2023-03-12T08:26:00.513Z,3.1
2023-03-12T08:27:00.686Z,3.2
2023-03-12T08:28:00.520Z,3.3
2023-03-12T08:29:00.575Z,3.5
2023-03-12T08:30:00.741Z,3.5
2023-03-12T08:31:00.547Z,3.6
2023-03-12T08:32:04.901Z,3.6
2023-03-12T08:33:00.700Z,3.7
2023-03-12T08:34:00.663Z,3.7
2023-03-12T08:35:00.615Z,3.8
2023-03-12T08:36:00.645Z,3.7
2023-03-12T08:37:01.275Z,3.8
2023-03-12T08:38:00.532Z,3.8
2023-03-12T08:39:00.637Z,3.7
2023-03-12T08:40:00.681Z,3.7
2023-03-12T08:41:01.004Z,3.8
2023-03-12T08:42:00.538Z,3.9
2023-03-12T08:43:00.651Z,4.0
2023-03-12T08:44:01.510Z,4.0
2023-03-12T08:45:00.537Z,4.0
2023-03-12T08:46:02.215Z,3.9
2023-03-12T08:47:00.627Z,3.8
2023-03-12T08:48:01.790Z,3.9
2023-03-12T08:49:00.518Z,4.0
2023-03-12T08:50:01.260Z,3.9
2023-03-12T08:51:01.469Z,3.9
2023-03-12T08:52:00.549Z,4.1
2023-03-12T08:53:00.649Z,4.4
2023-03-12T08:54:00.548Z,4.5
2023-03-12T08:55:00.604Z,4.7
2023-03-12T08:56:01.510Z,4.8
2023-03-12T08:57:00.541Z,5.0
2023-03-12T08:58:00.558Z,5.1
2023-03-12T08:59:00.525Z,5.0
2023-03-12T09:00:00.718Z,5.2
2023-03-12T09:01:00.544Z,5.4
2023-03-12T09:02:00.538Z,5.6
2023-03-12T09:03:00.704Z,5.8
2023-03-12T09:04:02.208Z,5.9
2023-03-12T09:05:00.539Z,5.8
2023-03-12T09:06:02.955Z,6.1
2023-03-12T09:07:00.516Z,6.3
2023-03-12T09:08:00.535Z,6.5
2023-03-12T09:09:00.984Z,6.7
2023-03-12T09:10:00.580Z,6.8
2023-03-12T09:11:00.576Z,6.9
2023-03-12T09:12:00.525Z,6.8
2023-03-12T09:13:01.086Z,7.0
2023-03-12T09:14:36.676Z,7.1
2023-03-12T09:15:03.915Z,7.0
2023-03-12T09:16:01.886Z,6.9
2023-03-12T09:17:00.687Z,6.9
2023-03-12T09:18:00.522Z,6.7
2023-03-12T09:19:00.648Z,6.6
2023-03-12T09:20:00.598Z,6.5
2023-03-12T09:21:01.654Z,6.3
2023-03-12T09:22:00.551Z,6.1
2023-03-12T09:23:00.565Z,5.9
2023-03-12T09:24:00.507Z,5.7
2023-03-12T09:25:00.512Z,5.5
2023-03-12T09:26:00.584Z,5.4
2023-03-12T09:27:01.145Z,5.2
2023-03-12T09:28:00.515Z,5.2
2023-03-12T09:29:00.501Z,5.4
2023-03-12T09:30:01.410Z,5.5
2023-03-12T09:31:02.014Z,5.7
2023-03-12T09:32:00.509Z,5.8
2023-03-12T09:33:00.622Z,5.9
2023-03-12T09:34:00.708Z,5.8
2023-03-12T09:35:00.661Z,5.7
2023-03-12T09:36:01.247Z,5.5
2023-03-12T09:37:00.524Z,5.4
2023-03-12T09:38:01.197Z,5.4
2023-03-12T09:39:00.513Z,5.2
2023-03-12T09:40:00.664Z,5.2
2023-03-12T09:41:03.286Z,5.0
2023-03-12T09:42:03.629Z,4.9
2023-03-12T09:43:09.039Z,4.8
2023-03-12T09:44:09.477Z,4.7
2023-03-12T09:45:04.721Z,4.7
2023-03-12T09:46:01.169Z,4.7
2023-03-12T09:47:04.012Z,4.7
2023-03-12T09:48:03.257Z,4.7
2023-03-12T09:49:05.227Z,4.6
2023-03-12T09:50:05.666Z,4.6
2023-03-12T09:51:05.225Z,4.6
2023-03-12T09:52:04.660Z,4.5
2023-03-12T09:53:08.944Z,4.3
2023-03-12T09:54:05.093Z,4.3
2023-03-12T09:55:17.560Z,4.2
2023-03-12T09:56:03.635Z,4.0
2023-03-12T09:57:07.989Z,3.9
2023-03-12T09:58:02.015Z,3.9
2023-03-12T09:59:00.927Z,3.8
2023-03-12T10:00:00.935Z,3.7
2023-03-12T10:01:20.416Z,3.7
2023-03-12T10:02:07.189Z,3.7
2023-03-12T10:03:11.538Z,3.8
2023-03-12T10:04:04.972Z,3.8
2023-03-12T10:05:09.761Z,3.8
2023-03-12T10:06:11.013Z,3.7
2023-03-12T10:07:11.063Z,3.7
2023-03-12T10:08:24.193Z,3.7
2023-03-12T10:09:10.461Z,3.8
2023-03-12T10:10:15.641Z,3.9
2023-03-12T10:11:15.962Z,3.8
2023-03-12T10:12:20.430Z,3.8
2023-03-12T10:13:13.317Z,3.8
2023-03-12T10:14:11.103Z,3.8
2023-03-12T10:15:15.964Z,3.8
2023-03-12T10:16:05.355Z,3.9
2023-03-12T10:17:09.973Z,3.8
2023-03-12T10:18:17.903Z,3.9
2023-03-12T10:19:20.467Z,4.0
2023-03-12T10:20:20.443Z,4.1
2023-03-12T10:21:09.549Z,4.2
2023-03-12T10:22:11.946Z,4.2
2023-03-12T10:23:20.422Z,4.3
2023-03-12T10:24:14.261Z,4.4
2023-03-12T10:25:20.466Z,4.5
2023-03-12T10:26:08.810Z,4.4
2023-03-12T10:27:00.540Z,4.4
2023-03-12T10:28:13.123Z,4.2
2023-03-12T10:29:09.079Z,4.2
2023-03-12T10:30:11.108Z,4.0
2023-03-12T10:31:05.635Z,4.0
2023-03-12T10:32:05.643Z,4.0
2023-03-12T10:33:05.626Z,4.0
2023-03-12T10:34:08.080Z,4.0
2023-03-12T10:35:13.827Z,4.1
2023-03-12T10:36:00.594Z,4.1
2023-03-12T10:37:05.453Z,4.1
2023-03-12T10:38:03.271Z,4.2
2023-03-12T10:39:01.117Z,4.3
2023-03-12T10:40:00.674Z,4.4
2023-03-12T10:41:12.354Z,4.4
2023-03-12T10:42:00.815Z,4.5
2023-03-12T10:43:01.596Z,4.5
2023-03-12T10:44:06.421Z,4.4
2023-03-12T10:45:07.780Z,4.4
2023-03-12T10:46:14.697Z,4.4
2023-03-12T10:47:11.799Z,4.4
2023-03-12T10:48:04.029Z,4.3
2023-03-12T10:49:20.443Z,4.3
2023-03-12T10:50:17.222Z,4.3
2023-03-12T10:51:03.864Z,4.4
2023-03-12T10:52:09.096Z,4.4
2023-03-12T10:53:17.132Z,4.4
2023-03-12T10:54:20.447Z,4.4
2023-03-12T10:55:11.189Z,4.4
2023-03-12T10:56:06.926Z,4.5
2023-03-12T10:57:00.643Z,4.5
2023-03-12T10:58:00.515Z,4.6
2023-03-12T10:59:00.558Z,4.6
2023-03-12T11:00:05.618Z,4.6
2023-03-12T11:01:03.779Z,4.7
2023-03-12T11:02:01.157Z,4.7
2023-03-12T11:03:02.886Z,4.7
2023-03-12T11:04:20.450Z,4.8
2023-03-12T11:05:08.624Z,4.7
2023-03-12T11:06:02.294Z,4.8
2023-03-12T11:07:11.492Z,4.8
2023-03-12T11:08:02.904Z,4.8
2023-03-12T11:09:15.773Z,4.7
2023-03-12T11:10:11.697Z,4.7
2023-03-12T11:11:03.013Z,4.7
2023-03-12T11:12:00.591Z,4.7
2023-03-12T11:13:04.184Z,4.7
2023-03-12T11:14:14.483Z,4.8
2023-03-12T11:15:20.459Z,4.7
2023-03-12T11:16:11.911Z,4.7
2023-03-12T11:17:18.803Z,4.6
2023-03-12T11:18:17.882Z,4.5
2023-03-12T11:19:03.368Z,4.4
2023-03-12T11:20:20.482Z,4.3
2023-03-12T11:21:07.941Z,4.3
2023-03-12T11:22:02.855Z,4.3
2023-03-12T11:23:12.768Z,4.3
2023-03-12T11:24:06.919Z,4.3
2023-03-12T11:25:04.408Z,4.4
2023-03-12T11:26:03.978Z,4.4
2023-03-12T11:27:18.275Z,4.5
2023-03-12T11:28:02.562Z,4.6
2023-03-12T11:29:04.090Z,4.6
2023-03-12T11:30:02.915Z,4.6
2023-03-12T11:31:01.246Z,4.6
2023-03-12T11:32:01.556Z,4.6
2023-03-12T11:33:00.608Z,4.6
2023-03-12T11:34:05.298Z,4.5
2023-03-12T11:35:01.501Z,4.6
2023-03-12T11:36:11.492Z,4.6
2023-03-12T11:37:11.473Z,4.6
2023-03-12T11:38:09.135Z,4.6
2023-03-12T11:39:10.142Z,4.6
2023-03-12T11:40:20.547Z,4.6
2023-03-12T11:41:07.456Z,4.7
2023-03-12T11:42:09.842Z,4.7
2023-03-12T11:43:13.837Z,4.7
2023-03-12T11:44:16.864Z,4.8
2023-03-12T11:45:13.826Z,4.8
2023-03-12T11:46:11.579Z,4.8
2023-03-12T11:47:09.533Z,4.8
2023-03-12T11:48:20.484Z,4.9
2023-03-12T11:49:01.537Z,5.0
2023-03-12T11:50:14.542Z,5.1
2023-03-12T11:51:16.990Z,5.1
2023-03-12T11:52:17.951Z,5.1
2023-03-12T11:53:17.856Z,5.2
2023-03-12T11:54:13.779Z,5.2
2023-03-12T11:55:09.158Z,5.2
2023-03-12T11:56:21.227Z,5.1
2023-03-12T11:57:09.157Z,5.2
2023-03-12T11:58:20.436Z,5.2
2023-03-12T11:59:12.889Z,5.2
2023-03-12T12:00:11.385Z,5.2
2023-03-12T12:01:09.766Z,5.2
2023-03-12T12:02:17.144Z,5.2
2023-03-12T12:03:11.597Z,5.3
2023-03-12T12:04:18.110Z,5.2
2023-03-12T12:05:10.452Z,5.3
2023-03-12T12:06:06.102Z,5.4
2023-03-12T12:07:17.734Z,5.4
2023-03-12T12:08:01.506Z,5.5
2023-03-12T12:09:03.768Z,5.5
2023-03-12T12:10:20.469Z,5.6
2023-03-12T12:11:08.944Z,5.6
2023-03-12T12:12:11.668Z,5.6
2023-03-12T12:13:20.436Z,5.7
2023-03-12T12:14:10.458Z,5.7
2023-03-12T12:15:18.372Z,5.7
2023-03-12T12:16:13.794Z,5.8
2023-03-12T12:17:08.482Z,5.7
2023-03-12T12:18:10.457Z,5.8
2023-03-12T12:19:10.480Z,5.8
2023-03-12T12:20:13.723Z,5.8
2023-03-12T12:21:09.033Z,5.9
2023-03-12T12:22:07.052Z,5.9
2023-03-12T12:23:10.579Z,5.9
2023-03-12T12:24:20.463Z,5.9
2023-03-12T12:25:10.531Z,6.0
2023-03-12T12:26:19.533Z,5.9
2023-03-12T12:27:10.520Z,5.9
2023-03-12T12:28:16.296Z,5.8
2023-03-12T12:29:11.499Z,5.8
2023-03-12T12:30:04.780Z,5.8
2023-03-12T12:31:15.412Z,5.8
2023-03-12T12:32:02.965Z,5.7
2023-03-12T12:33:18.456Z,5.7
2023-03-12T12:34:20.428Z,5.8
2023-03-12T12:35:20.430Z,5.8
2023-03-12T12:36:01.654Z,5.8
2023-03-12T12:37:03.747Z,5.8
2023-03-12T12:38:04.124Z,5.9
2023-03-12T12:39:10.401Z,5.9
2023-03-12T12:40:20.452Z,5.8
2023-03-12T12:41:10.477Z,5.8
2023-03-12T12:42:06.935Z,5.8
2023-03-12T12:43:14.260Z,5.9
2023-03-12T12:44:05.865Z,6.0
2023-03-12T12:45:03.138Z,6.0
2023-03-12T12:46:06.707Z,6.1
2023-03-12T12:47:04.890Z,6.0
2023-03-12T12:48:06.139Z,6.0
2023-03-12T12:49:15.456Z,6.0
2023-03-12T12:50:02.882Z,6.1
2023-03-12T12:51:02.484Z,6.0
2023-03-12T12:52:05.984Z,6.0
2023-03-12T12:53:12.733Z,6.0
2023-03-12T12:54:06.546Z,6.0
2023-03-12T12:55:11.211Z,6.0
2023-03-12T12:56:09.349Z,6.0
2023-03-12T12:57:13.567Z,6.0
2023-03-12T12:58:11.428Z,5.9
2023-03-12T12:59:20.448Z,6.0
2023-03-12T13:00:09.130Z,5.9
2023-03-12T13:01:01.467Z,5.9
2023-03-12T13:02:03.665Z,5.8
2023-03-12T13:03:00.644Z,5.8
2023-03-12T13:04:08.411Z,5.7
2023-03-12T13:05:00.784Z,5.6
2023-03-12T13:06:02.980Z,5.7
2023-03-12T13:07:10.485Z,5.7
2023-03-12T13:08:00.806Z,5.7
2023-03-12T13:09:12.904Z,5.8
2023-03-12T13:10:05.139Z,5.8
2023-03-12T13:11:18.680Z,5.9
2023-03-12T13:12:06.873Z,5.9
2023-03-12T13:13:11.853Z,5.9
2023-03-12T13:14:01.527Z,5.9
2023-03-12T13:15:11.425Z,5.9
2023-03-12T13:16:20.513Z,5.9
2023-03-12T13:17:19.307Z,5.9
2023-03-12T13:18:04.194Z,6.0
2023-03-12T13:19:13.764Z,6.1
2023-03-12T13:20:03.780Z,6.2
2023-03-12T13:21:18.267Z,6.2
2023-03-12T13:22:10.490Z,6.2
2023-03-12T13:23:17.951Z,6.3
2023-03-12T13:24:13.741Z,6.4
2023-03-12T13:25:14.591Z,6.3
2023-03-12T13:26:13.818Z,6.3
2023-03-12T13:27:01.525Z,6.3
2023-03-12T13:28:20.440Z,6.3
2023-03-12T13:29:12.995Z,6.3
2023-03-12T13:30:20.478Z,6.3
2023-03-12T13:31:01.736Z,6.3
2023-03-12T13:32:01.083Z,6.3
2023-03-12T13:33:00.524Z,6.3
2023-03-12T13:34:18.011Z,6.4